sensor_id;sensor_type;location;lat;lon;timestamp;temperature;humidity
5429;DHT22;2737;52.386;9.980;2022-11-15T00:02:21;6.70;99.90
5429;DHT22;2737;52.386;9.980;2022-11-15T00:04:48;6.70;99.90
5429;DHT22;2737;52.386;9.980;2022-11-15T00:07:16;6.70;99.90
5429;DHT22;2737;52.386;9.980;2022-11-15T00:09:43;6.70;99.90
5429;DHT22;2737;52.386;9.980;2022-11-15T00:12:11;6.70;99.90
5429;DHT22;2737;52.386;9.980;2022-11-15T00:14:38;6.70;99.90
5429;DHT22;2737;52.386;9.980;2022-11-15T00:17:05;6.60;99.90
5429;DHT22;2737;52.386;9.980;2022-11-15T00:19:32;6.60;99.90
5429;DHT22;2737;52.386;9.980;2022-11-15T00:21:59;6.60;99.90
5429;DHT22;2737;52.386;9.980;2022-11-15T00:24:27;6.60;99.90
5429;DHT22;2737;52.386;9.980;2022-11-15T00:26:54;6.60;99.90
5429;DHT22;2737;52.386;9.980;2022-11-15T00:29:21;6.50;99.90
5429;DHT22;2737;52.386;9.980;2022-11-15T00:31:48;6.50;99.90
5429;DHT22;2737;52.386;9.980;2022-11-15T00:34:15;6.40;99.90
5429;DHT22;2737;52.386;9.980;2022-11-15T00:36:42;6.20;99.90
5429;DHT22;2737;52.386;9.980;2022-11-15T00:39:10;6.30;99.90
5429;DHT22;2737;52.386;9.980;2022-11-15T00:41:38;6.30;99.90
5429;DHT22;2737;52.386;9.980;2022-11-15T00:44:05;6.30;99.90
5429;DHT22;2737;52.386;9.980;2022-11-15T00:46:32;6.30;99.90
5429;DHT22;2737;52.386;9.980;2022-11-15T00:48:59;6.30;99.90
5429;DHT22;2737;52.386;9.980;2022-11-15T00:51:26;6.20;99.90
5429;DHT22;2737;52.386;9.980;2022-11-15T00:53:53;6.20;99.90
5429;DHT22;2737;52.386;9.980;2022-11-15T00:56:20;6.00;99.90
5429;DHT22;2737;52.386;9.980;2022-11-15T00:58:48;5.90;99.90
5429;DHT22;2737;52.386;9.980;2022-11-15T01:01:16;5.80;99.90
5429;DHT22;2737;52.386;9.980;2022-11-15T01:03:43;5.80;99.90
5429;DHT22;2737;52.386;9.980;2022-11-15T01:06:10;5.80;99.90
5429;DHT22;2737;52.386;9.980;2022-11-15T01:08:39;5.90;99.90
5429;DHT22;2737;52.386;9.980;2022-11-15T01:11:08;6.00;99.90
5429;DHT22;2737;52.386;9.980;2022-11-15T01:13:36;6.00;99.90
5429;DHT22;2737;52.386;9.980;2022-11-15T01:16:10;6.10;99.90
5429;DHT22;2737;52.386;9.980;2022-11-15T01:18:39;6.10;99.90
5429;DHT22;2737;52.386;9.980;2022-11-15T01:21:07;6.10;99.90
5429;DHT22;2737;52.386;9.980;2022-11-15T01:23:35;6.10;99.90
5429;DHT22;2737;52.386;9.980;2022-11-15T01:26:04;6.20;99.90
5429;DHT22;2737;52.386;9.980;2022-11-15T01:28:31;6.20;99.90
5429;DHT22;2737;52.386;9.980;2022-11-15T01:30:59;6.20;99.90
5429;DHT22;2737;52.386;9.980;2022-11-15T01:33:28;6.30;99.90
5429;DHT22;2737;52.386;9.980;2022-11-15T01:35:56;6.40;99.90
5429;DHT22;2737;52.386;9.980;2022-11-15T01:38:23;6.40;99.90
5429;DHT22;2737;52.386;9.980;2022-11-15T01:40:50;6.40;99.90
5429;DHT22;2737;52.386;9.980;2022-11-15T01:43:22;6.50;99.90
5429;DHT22;2737;52.386;9.980;2022-11-15T01:45:53;6.50;99.90
5429;DHT22;2737;52.386;9.980;2022-11-15T01:48:23;6.50;99.90
5429;DHT22;2737;52.386;9.980;2022-11-15T01:50:53;6.50;99.90
5429;DHT22;2737;52.386;9.980;2022-11-15T01:53:21;6.50;99.90
5429;DHT22;2737;52.386;9.980;2022-11-15T01:55:51;6.50;99.90
5429;DHT22;2737;52.386;9.980;2022-11-15T01:58:18;6.50;99.90
5429;DHT22;2737;52.386;9.980;2022-11-15T02:00:46;6.40;99.90
5429;DHT22;2737;52.386;9.980;2022-11-15T02:03:13;6.40;99.90
5429;DHT22;2737;52.386;9.980;2022-11-15T02:05:41;6.40;99.90
5429;DHT22;2737;52.386;9.980;2022-11-15T02:08:11;6.40;99.90
5429;DHT22;2737;52.386;9.980;2022-11-15T02:10:45;6.20;99.90
5429;DHT22;2737;52.386;9.980;2022-11-15T02:13:13;6.10;99.90
5429;DHT22;2737;52.386;9.980;2022-11-15T02:15:47;6.10;99.90
5429;DHT22;2737;52.386;9.980;2022-11-15T02:18:23;6.10;99.90
5429;DHT22;2737;52.386;9.980;2022-11-15T02:20:58;6.10;99.90
5429;DHT22;2737;52.386;9.980;2022-11-15T02:23:56;6.10;99.90
5429;DHT22;2737;52.386;9.980;2022-11-15T02:26:50;6.10;99.90
5429;DHT22;2737;52.386;9.980;2022-11-15T02:29:26;6.10;99.90
5429;DHT22;2737;52.386;9.980;2022-11-15T02:32:05;6.10;99.90
5429;DHT22;2737;52.386;9.980;2022-11-15T02:34:43;6.10;99.90
5429;DHT22;2737;52.386;9.980;2022-11-15T02:37:19;6.10;99.90
5429;DHT22;2737;52.386;9.980;2022-11-15T02:39:51;6.10;99.90
5429;DHT22;2737;52.386;9.980;2022-11-15T02:42:25;6.10;99.90
5429;DHT22;2737;52.386;9.980;2022-11-15T02:45:15;6.00;99.90
5429;DHT22;2737;52.386;9.980;2022-11-15T02:47:47;6.00;99.90
5429;DHT22;2737;52.386;9.980;2022-11-15T02:50:18;6.00;99.90
5429;DHT22;2737;52.386;9.980;2022-11-15T02:52:47;6.00;99.90
5429;DHT22;2737;52.386;9.980;2022-11-15T02:55:28;6.00;99.90
5429;DHT22;2737;52.386;9.980;2022-11-15T02:58:14;6.00;99.90
5429;DHT22;2737;52.386;9.980;2022-11-15T03:00:47;5.90;99.90
5429;DHT22;2737;52.386;9.980;2022-11-15T03:03:40;5.90;99.90
5429;DHT22;2737;52.386;9.980;2022-11-15T03:06:19;5.90;99.90
5429;DHT22;2737;52.386;9.980;2022-11-15T03:08:54;5.90;99.90
5429;DHT22;2737;52.386;9.980;2022-11-15T03:11:24;6.00;99.90
5429;DHT22;2737;52.386;9.980;2022-11-15T03:13:57;6.00;99.90
5429;DHT22;2737;52.386;9.980;2022-11-15T03:16:29;6.10;99.90
5429;DHT22;2737;52.386;9.980;2022-11-15T03:19:04;6.20;99.90
5429;DHT22;2737;52.386;9.980;2022-11-15T03:21:34;6.30;99.90
5429;DHT22;2737;52.386;9.980;2022-11-15T03:24:04;6.40;99.90
5429;DHT22;2737;52.386;9.980;2022-11-15T03:26:33;6.40;99.90
5429;DHT22;2737;52.386;9.980;2022-11-15T03:29:06;6.40;99.90
5429;DHT22;2737;52.386;9.980;2022-11-15T03:31:38;6.40;99.90
5429;DHT22;2737;52.386;9.980;2022-11-15T03:34:23;6.40;99.90
5429;DHT22;2737;52.386;9.980;2022-11-15T03:36:53;6.30;99.90
5429;DHT22;2737;52.386;9.980;2022-11-15T03:39:21;6.30;99.90
5429;DHT22;2737;52.386;9.980;2022-11-15T03:41:52;6.30;99.90
5429;DHT22;2737;52.386;9.980;2022-11-15T03:44:34;6.20;99.90
5429;DHT22;2737;52.386;9.980;2022-11-15T03:47:06;6.20;99.90
5429;DHT22;2737;52.386;9.980;2022-11-15T03:49:38;6.30;99.90
5429;DHT22;2737;52.386;9.980;2022-11-15T03:52:07;6.30;99.90
5429;DHT22;2737;52.386;9.980;2022-11-15T03:54:36;6.30;99.90
5429;DHT22;2737;52.386;9.980;2022-11-15T03:57:03;6.40;99.90
5429;DHT22;2737;52.386;9.980;2022-11-15T03:59:30;6.70;99.90
5429;DHT22;2737;52.386;9.980;2022-11-15T04:01:57;7.00;99.90
5429;DHT22;2737;52.386;9.980;2022-11-15T04:04:24;7.10;99.90
5429;DHT22;2737;52.386;9.980;2022-11-15T04:06:53;7.20;99.90
5429;DHT22;2737;52.386;9.980;2022-11-15T04:09:20;7.20;99.90
5429;DHT22;2737;52.386;9.980;2022-11-15T04:11:47;7.00;99.90
5429;DHT22;2737;52.386;9.980;2022-11-15T04:14:14;6.90;99.90
5429;DHT22;2737;52.386;9.980;2022-11-15T04:16:41;6.80;99.90
5429;DHT22;2737;52.386;9.980;2022-11-15T04:19:08;6.80;99.90
5429;DHT22;2737;52.386;9.980;2022-11-15T04:21:53;6.70;99.90
5429;DHT22;2737;52.386;9.980;2022-11-15T04:24:38;6.60;99.90
5429;DHT22;2737;52.386;9.980;2022-11-15T04:27:05;6.60;99.90
5429;DHT22;2737;52.386;9.980;2022-11-15T04:29:32;6.60;99.90
5429;DHT22;2737;52.386;9.980;2022-11-15T04:32:02;6.60;99.90
5429;DHT22;2737;52.386;9.980;2022-11-15T04:34:29;6.60;99.90
5429;DHT22;2737;52.386;9.980;2022-11-15T04:36:58;6.70;99.90
5429;DHT22;2737;52.386;9.980;2022-11-15T04:39:42;6.90;99.90
5429;DHT22;2737;52.386;9.980;2022-11-15T04:42:09;6.90;99.90
5429;DHT22;2737;52.386;9.980;2022-11-15T04:44:36;7.00;99.90
5429;DHT22;2737;52.386;9.980;2022-11-15T04:47:04;7.10;99.90
5429;DHT22;2737;52.386;9.980;2022-11-15T04:49:31;7.20;99.90
5429;DHT22;2737;52.386;9.980;2022-11-15T04:52:00;7.20;99.90
5429;DHT22;2737;52.386;9.980;2022-11-15T04:54:27;7.40;99.90
5429;DHT22;2737;52.386;9.980;2022-11-15T04:56:54;7.50;99.90
5429;DHT22;2737;52.386;9.980;2022-11-15T04:59:21;7.50;99.90
5429;DHT22;2737;52.386;9.980;2022-11-15T05:01:48;7.60;99.90
5429;DHT22;2737;52.386;9.980;2022-11-15T05:04:15;7.80;99.90
5429;DHT22;2737;52.386;9.980;2022-11-15T05:06:48;7.80;99.90
5429;DHT22;2737;52.386;9.980;2022-11-15T05:09:17;7.80;99.90
5429;DHT22;2737;52.386;9.980;2022-11-15T05:11:44;7.80;99.90
5429;DHT22;2737;52.386;9.980;2022-11-15T05:14:11;7.80;99.90
5429;DHT22;2737;52.386;9.980;2022-11-15T05:16:39;7.80;99.90
5429;DHT22;2737;52.386;9.980;2022-11-15T05:19:06;7.90;99.90
5429;DHT22;2737;52.386;9.980;2022-11-15T05:21:34;7.90;99.90
5429;DHT22;2737;52.386;9.980;2022-11-15T05:24:02;7.90;99.90
5429;DHT22;2737;52.386;9.980;2022-11-15T05:26:30;7.90;99.90
5429;DHT22;2737;52.386;9.980;2022-11-15T05:28:58;8.00;99.90
5429;DHT22;2737;52.386;9.980;2022-11-15T05:31:26;8.00;99.90
5429;DHT22;2737;52.386;9.980;2022-11-15T05:33:55;8.10;99.90
5429;DHT22;2737;52.386;9.980;2022-11-15T05:36:28;8.10;99.90
5429;DHT22;2737;52.386;9.980;2022-11-15T05:38:56;8.10;99.90
5429;DHT22;2737;52.386;9.980;2022-11-15T05:41:27;8.10;99.90
5429;DHT22;2737;52.386;9.980;2022-11-15T05:43:58;8.10;99.90
5429;DHT22;2737;52.386;9.980;2022-11-15T05:46:26;8.20;99.90
5429;DHT22;2737;52.386;9.980;2022-11-15T05:48:55;8.20;99.90
5429;DHT22;2737;52.386;9.980;2022-11-15T05:51:23;8.20;99.90
5429;DHT22;2737;52.386;9.980;2022-11-15T05:53:51;8.30;99.90
5429;DHT22;2737;52.386;9.980;2022-11-15T05:56:19;8.20;99.90
5429;DHT22;2737;52.386;9.980;2022-11-15T05:58:46;8.20;99.90
5429;DHT22;2737;52.386;9.980;2022-11-15T06:01:15;8.10;99.90
5429;DHT22;2737;52.386;9.980;2022-11-15T06:03:42;8.10;99.90
5429;DHT22;2737;52.386;9.980;2022-11-15T06:06:09;8.10;99.90
5429;DHT22;2737;52.386;9.980;2022-11-15T06:08:36;8.10;99.90
5429;DHT22;2737;52.386;9.980;2022-11-15T06:11:04;8.10;99.90
5429;DHT22;2737;52.386;9.980;2022-11-15T06:13:32;8.00;99.90
5429;DHT22;2737;52.386;9.980;2022-11-15T06:15:59;8.10;99.90
5429;DHT22;2737;52.386;9.980;2022-11-15T06:18:27;8.10;99.90
5429;DHT22;2737;52.386;9.980;2022-11-15T06:20:58;8.10;99.90
5429;DHT22;2737;52.386;9.980;2022-11-15T06:23:25;8.10;99.90
5429;DHT22;2737;52.386;9.980;2022-11-15T06:25:53;8.00;99.90
5429;DHT22;2737;52.386;9.980;2022-11-15T06:28:20;8.00;99.90
5429;DHT22;2737;52.386;9.980;2022-11-15T06:30:47;8.00;99.90
5429;DHT22;2737;52.386;9.980;2022-11-15T06:33:14;8.00;99.90
5429;DHT22;2737;52.386;9.980;2022-11-15T06:35:42;7.90;99.90
5429;DHT22;2737;52.386;9.980;2022-11-15T06:38:10;7.90;99.90
5429;DHT22;2737;52.386;9.980;2022-11-15T06:40:39;8.00;99.90
5429;DHT22;2737;52.386;9.980;2022-11-15T06:43:06;7.90;99.90
5429;DHT22;2737;52.386;9.980;2022-11-15T06:45:34;7.90;99.90
5429;DHT22;2737;52.386;9.980;2022-11-15T06:48:01;7.80;99.90
5429;DHT22;2737;52.386;9.980;2022-11-15T06:50:28;7.80;99.90
5429;DHT22;2737;52.386;9.980;2022-11-15T06:53:00;7.70;99.90
5429;DHT22;2737;52.386;9.980;2022-11-15T06:55:28;7.70;99.90
5429;DHT22;2737;52.386;9.980;2022-11-15T06:57:55;7.70;99.90
5429;DHT22;2737;52.386;9.980;2022-11-15T07:00:22;7.70;99.90
5429;DHT22;2737;52.386;9.980;2022-11-15T07:02:49;7.70;99.90
5429;DHT22;2737;52.386;9.980;2022-11-15T07:05:16;7.70;99.90
5429;DHT22;2737;52.386;9.980;2022-11-15T07:07:45;7.70;99.90
5429;DHT22;2737;52.386;9.980;2022-11-15T07:10:18;7.70;99.90
5429;DHT22;2737;52.386;9.980;2022-11-15T07:12:47;7.70;99.90
5429;DHT22;2737;52.386;9.980;2022-11-15T07:15:14;7.70;99.90
5429;DHT22;2737;52.386;9.980;2022-11-15T07:17:41;7.70;99.90
5429;DHT22;2737;52.386;9.980;2022-11-15T07:20:09;7.80;99.90
5429;DHT22;2737;52.386;9.980;2022-11-15T07:22:36;7.80;99.90
5429;DHT22;2737;52.386;9.980;2022-11-15T07:25:03;7.90;99.90
5429;DHT22;2737;52.386;9.980;2022-11-15T07:27:32;8.00;99.90
5429;DHT22;2737;52.386;9.980;2022-11-15T07:29:59;8.20;99.90
5429;DHT22;2737;52.386;9.980;2022-11-15T07:32:26;8.40;99.90
5429;DHT22;2737;52.386;9.980;2022-11-15T07:34:53;8.50;99.90
5429;DHT22;2737;52.386;9.980;2022-11-15T07:37:20;8.60;99.90
5429;DHT22;2737;52.386;9.980;2022-11-15T07:39:47;8.70;99.90
5429;DHT22;2737;52.386;9.980;2022-11-15T07:42:14;8.80;99.90
5429;DHT22;2737;52.386;9.980;2022-11-15T07:45:00;8.90;99.90
5429;DHT22;2737;52.386;9.980;2022-11-15T07:47:28;9.00;99.90
5429;DHT22;2737;52.386;9.980;2022-11-15T07:49:55;9.00;99.90
5429;DHT22;2737;52.386;9.980;2022-11-15T07:52:22;9.10;99.90
5429;DHT22;2737;52.386;9.980;2022-11-15T07:54:49;9.20;99.90
5429;DHT22;2737;52.386;9.980;2022-11-15T07:57:16;9.20;99.90
5429;DHT22;2737;52.386;9.980;2022-11-15T07:59:43;9.30;99.90
5429;DHT22;2737;52.386;9.980;2022-11-15T08:02:12;9.30;99.90
5429;DHT22;2737;52.386;9.980;2022-11-15T08:04:39;9.30;99.90
5429;DHT22;2737;52.386;9.980;2022-11-15T08:07:06;9.30;99.90
5429;DHT22;2737;52.386;9.980;2022-11-15T08:09:33;9.30;99.90
5429;DHT22;2737;52.386;9.980;2022-11-15T08:12:00;9.20;99.90
5429;DHT22;2737;52.386;9.980;2022-11-15T08:14:27;9.20;99.90
5429;DHT22;2737;52.386;9.980;2022-11-15T08:16:54;9.20;99.90
5429;DHT22;2737;52.386;9.980;2022-11-15T08:19:23;9.20;99.90
5429;DHT22;2737;52.386;9.980;2022-11-15T08:21:50;9.20;99.90
5429;DHT22;2737;52.386;9.980;2022-11-15T08:24:17;9.20;99.90
5429;DHT22;2737;52.386;9.980;2022-11-15T08:26:44;9.30;99.90
5429;DHT22;2737;52.386;9.980;2022-11-15T08:29:11;9.20;99.90
5429;DHT22;2737;52.386;9.980;2022-11-15T08:31:38;9.30;99.90
5429;DHT22;2737;52.386;9.980;2022-11-15T08:34:06;9.30;99.90
5429;DHT22;2737;52.386;9.980;2022-11-15T08:36:35;9.30;99.90
5429;DHT22;2737;52.386;9.980;2022-11-15T08:39:02;9.30;99.90
5429;DHT22;2737;52.386;9.980;2022-11-15T08:41:32;9.40;99.90
5429;DHT22;2737;52.386;9.980;2022-11-15T08:44:00;9.40;99.90
5429;DHT22;2737;52.386;9.980;2022-11-15T08:46:28;9.40;99.90
5429;DHT22;2737;52.386;9.980;2022-11-15T08:48:55;9.50;99.90
5429;DHT22;2737;52.386;9.980;2022-11-15T08:51:22;9.70;99.90
5429;DHT22;2737;52.386;9.980;2022-11-15T08:53:50;9.80;99.90
5429;DHT22;2737;52.386;9.980;2022-11-15T08:56:17;9.80;99.90
5429;DHT22;2737;52.386;9.980;2022-11-15T08:58:44;9.90;99.90
5429;DHT22;2737;52.386;9.980;2022-11-15T09:01:16;10.00;99.90
5429;DHT22;2737;52.386;9.980;2022-11-15T09:03:43;10.10;99.90
5429;DHT22;2737;52.386;9.980;2022-11-15T09:06:10;10.20;99.90
5429;DHT22;2737;52.386;9.980;2022-11-15T09:08:38;10.30;99.90
5429;DHT22;2737;52.386;9.980;2022-11-15T09:11:07;10.30;99.90
5429;DHT22;2737;52.386;9.980;2022-11-15T09:13:35;10.40;99.90
5429;DHT22;2737;52.386;9.980;2022-11-15T09:16:04;10.50;99.90
5429;DHT22;2737;52.386;9.980;2022-11-15T09:18:31;10.50;99.90
5429;DHT22;2737;52.386;9.980;2022-11-15T09:20:59;10.60;99.90
5429;DHT22;2737;52.386;9.980;2022-11-15T09:23:26;10.70;99.90
5429;DHT22;2737;52.386;9.980;2022-11-15T09:25:58;10.80;99.90
5429;DHT22;2737;52.386;9.980;2022-11-15T09:28:27;10.80;99.90
5429;DHT22;2737;52.386;9.980;2022-11-15T09:30:56;10.80;99.90
5429;DHT22;2737;52.386;9.980;2022-11-15T09:33:24;10.90;99.90
5429;DHT22;2737;52.386;9.980;2022-11-15T09:35:51;10.90;99.90
5429;DHT22;2737;52.386;9.980;2022-11-15T09:38:19;11.00;99.90
5429;DHT22;2737;52.386;9.980;2022-11-15T09:40:50;11.10;99.90
5429;DHT22;2737;52.386;9.980;2022-11-15T09:43:35;11.10;99.90
5429;DHT22;2737;52.386;9.980;2022-11-15T09:46:12;11.20;99.90
5429;DHT22;2737;52.386;9.980;2022-11-15T09:48:52;11.20;99.90
5429;DHT22;2737;52.386;9.980;2022-11-15T09:51:29;11.20;99.90
5429;DHT22;2737;52.386;9.980;2022-11-15T09:54:05;11.30;99.90
5429;DHT22;2737;52.386;9.980;2022-11-15T09:56:37;11.40;99.90
5429;DHT22;2737;52.386;9.980;2022-11-15T09:59:18;11.40;99.90
5429;DHT22;2737;52.386;9.980;2022-11-15T10:01:56;11.50;99.90
5429;DHT22;2737;52.386;9.980;2022-11-15T10:04:26;11.60;99.90
5429;DHT22;2737;52.386;9.980;2022-11-15T10:06:58;11.60;99.90
5429;DHT22;2737;52.386;9.980;2022-11-15T10:09:31;11.60;99.90
5429;DHT22;2737;52.386;9.980;2022-11-15T10:12:02;11.60;99.90
5429;DHT22;2737;52.386;9.980;2022-11-15T10:14:31;11.60;99.90
5429;DHT22;2737;52.386;9.980;2022-11-15T10:20:10;11.70;99.90
5429;DHT22;2737;52.386;9.980;2022-11-15T10:22:41;11.70;99.90
5429;DHT22;2737;52.386;9.980;2022-11-15T10:25:20;11.70;99.90
5429;DHT22;2737;52.386;9.980;2022-11-15T10:27:53;11.70;99.90
5429;DHT22;2737;52.386;9.980;2022-11-15T10:30:22;11.80;99.90
5429;DHT22;2737;52.386;9.980;2022-11-15T10:32:49;11.80;99.90
5429;DHT22;2737;52.386;9.980;2022-11-15T10:35:27;11.90;99.90
5429;DHT22;2737;52.386;9.980;2022-11-15T10:38:05;12.00;99.90
5429;DHT22;2737;52.386;9.980;2022-11-15T10:40:33;12.00;99.90
5429;DHT22;2737;52.386;9.980;2022-11-15T10:43:06;12.10;99.90
5429;DHT22;2737;52.386;9.980;2022-11-15T10:45:40;12.10;99.90
5429;DHT22;2737;52.386;9.980;2022-11-15T10:48:24;12.10;99.90
5429;DHT22;2737;52.386;9.980;2022-11-15T10:50:53;12.10;99.90
5429;DHT22;2737;52.386;9.980;2022-11-15T10:53:27;12.20;99.90
5429;DHT22;2737;52.386;9.980;2022-11-15T10:55:59;12.10;99.90
5429;DHT22;2737;52.386;9.980;2022-11-15T10:58:35;12.20;99.90
5429;DHT22;2737;52.386;9.980;2022-11-15T11:01:13;12.20;99.90
5429;DHT22;2737;52.386;9.980;2022-11-15T11:03:42;12.30;99.90
5429;DHT22;2737;52.386;9.980;2022-11-15T11:06:12;12.30;99.90
5429;DHT22;2737;52.386;9.980;2022-11-15T11:08:39;12.40;99.90
5429;DHT22;2737;52.386;9.980;2022-11-15T11:11:07;12.40;99.90
5429;DHT22;2737;52.386;9.980;2022-11-15T11:13:37;12.40;99.90
5429;DHT22;2737;52.386;9.980;2022-11-15T11:19:17;12.50;99.90
5429;DHT22;2737;52.386;9.980;2022-11-15T11:21:51;12.50;99.90
5429;DHT22;2737;52.386;9.980;2022-11-15T11:24:25;12.60;99.90
5429;DHT22;2737;52.386;9.980;2022-11-15T11:27:08;12.60;99.90
5429;DHT22;2737;52.386;9.980;2022-11-15T11:29:49;12.60;99.90
5429;DHT22;2737;52.386;9.980;2022-11-15T11:32:34;12.70;99.90
5429;DHT22;2737;52.386;9.980;2022-11-15T11:35:12;12.70;99.90
5429;DHT22;2737;52.386;9.980;2022-11-15T11:37:46;12.80;99.90
5429;DHT22;2737;52.386;9.980;2022-11-15T11:40:28;12.80;99.90
5429;DHT22;2737;52.386;9.980;2022-11-15T11:43:00;12.70;99.90
5429;DHT22;2737;52.386;9.980;2022-11-15T11:48:39;12.70;99.90
5429;DHT22;2737;52.386;9.980;2022-11-15T11:51:13;12.80;99.90
5429;DHT22;2737;52.386;9.980;2022-11-15T11:53:47;12.80;99.90
5429;DHT22;2737;52.386;9.980;2022-11-15T11:56:25;12.80;99.90
5429;DHT22;2737;52.386;9.980;2022-11-15T11:58:55;12.80;99.90
5429;DHT22;2737;52.386;9.980;2022-11-15T12:01:25;12.80;99.90
5429;DHT22;2737;52.386;9.980;2022-11-15T12:03:57;13.00;99.90
5429;DHT22;2737;52.386;9.980;2022-11-15T12:06:32;13.00;99.90
5429;DHT22;2737;52.386;9.980;2022-11-15T12:09:04;13.10;99.90
5429;DHT22;2737;52.386;9.980;2022-11-15T12:11:38;13.10;99.90
5429;DHT22;2737;52.386;9.980;2022-11-15T12:14:17;13.20;99.90
5429;DHT22;2737;52.386;9.980;2022-11-15T12:16:46;13.20;99.90
5429;DHT22;2737;52.386;9.980;2022-11-15T12:19:13;13.20;99.90
5429;DHT22;2737;52.386;9.980;2022-11-15T12:21:45;13.30;99.90
5429;DHT22;2737;52.386;9.980;2022-11-15T12:24:16;13.30;99.90
5429;DHT22;2737;52.386;9.980;2022-11-15T12:26:49;13.30;99.90
5429;DHT22;2737;52.386;9.980;2022-11-15T12:29:23;13.40;99.90
5429;DHT22;2737;52.386;9.980;2022-11-15T12:31:53;13.40;99.90
5429;DHT22;2737;52.386;9.980;2022-11-15T12:34:43;13.40;99.90
5429;DHT22;2737;52.386;9.980;2022-11-15T12:40:32;13.40;99.90
5429;DHT22;2737;52.386;9.980;2022-11-15T12:43:10;13.40;99.90
5429;DHT22;2737;52.386;9.980;2022-11-15T12:45:52;13.50;99.90
5429;DHT22;2737;52.386;9.980;2022-11-15T12:57:46;13.50;99.90
5429;DHT22;2737;52.386;9.980;2022-11-15T13:00:43;13.50;99.90
5429;DHT22;2737;52.386;9.980;2022-11-15T13:03:29;13.50;99.90
5429;DHT22;2737;52.386;9.980;2022-11-15T13:06:08;13.50;99.90
5429;DHT22;2737;52.386;9.980;2022-11-15T13:08:54;13.40;99.90
5429;DHT22;2737;52.386;9.980;2022-11-15T13:11:52;13.40;99.90
5429;DHT22;2737;52.386;9.980;2022-11-15T13:14:43;13.40;99.90
5429;DHT22;2737;52.386;9.980;2022-11-15T13:17:27;13.40;99.90
5429;DHT22;2737;52.386;9.980;2022-11-15T13:20:01;13.40;99.90
5429;DHT22;2737;52.386;9.980;2022-11-15T13:22:38;13.40;99.90
5429;DHT22;2737;52.386;9.980;2022-11-15T13:28:24;13.40;99.90
5429;DHT22;2737;52.386;9.980;2022-11-15T13:30:54;13.40;99.90
5429;DHT22;2737;52.386;9.980;2022-11-15T13:33:24;13.40;99.90
5429;DHT22;2737;52.386;9.980;2022-11-15T13:35:54;13.40;99.90
5429;DHT22;2737;52.386;9.980;2022-11-15T13:38:27;13.40;99.90
5429;DHT22;2737;52.386;9.980;2022-11-15T13:40:54;13.40;99.90
5429;DHT22;2737;52.386;9.980;2022-11-15T13:43:32;13.50;99.90
5429;DHT22;2737;52.386;9.980;2022-11-15T13:46:06;13.50;99.90
5429;DHT22;2737;52.386;9.980;2022-11-15T13:48:34;13.50;99.90
5429;DHT22;2737;52.386;9.980;2022-11-15T13:51:01;13.50;99.90
5429;DHT22;2737;52.386;9.980;2022-11-15T13:53:31;13.50;99.90
5429;DHT22;2737;52.386;9.980;2022-11-15T13:55:59;13.60;99.90
5429;DHT22;2737;52.386;9.980;2022-11-15T13:58:26;13.60;99.90
5429;DHT22;2737;52.386;9.980;2022-11-15T14:00:59;13.60;99.90
5429;DHT22;2737;52.386;9.980;2022-11-15T14:03:30;13.60;99.90
5429;DHT22;2737;52.386;9.980;2022-11-15T14:06:06;13.60;99.90
5429;DHT22;2737;52.386;9.980;2022-11-15T14:08:38;13.60;99.90
5429;DHT22;2737;52.386;9.980;2022-11-15T14:11:17;13.60;99.90
5429;DHT22;2737;52.386;9.980;2022-11-15T14:16:43;13.60;99.90
5429;DHT22;2737;52.386;9.980;2022-11-15T14:19:33;13.60;99.90
5429;DHT22;2737;52.386;9.980;2022-11-15T14:22:18;13.60;99.90
5429;DHT22;2737;52.386;9.980;2022-11-15T14:24:47;13.60;99.90
5429;DHT22;2737;52.386;9.980;2022-11-15T14:27:31;13.60;99.90
5429;DHT22;2737;52.386;9.980;2022-11-15T14:30:00;13.50;99.90
5429;DHT22;2737;52.386;9.980;2022-11-15T14:32:28;13.50;99.90
5429;DHT22;2737;52.386;9.980;2022-11-15T14:34:58;13.60;99.90
5429;DHT22;2737;52.386;9.980;2022-11-15T14:37:27;13.60;99.90
5429;DHT22;2737;52.386;9.980;2022-11-15T14:39:54;13.60;99.90
5429;DHT22;2737;52.386;9.980;2022-11-15T14:42:22;13.60;99.90
5429;DHT22;2737;52.386;9.980;2022-11-15T14:44:50;13.60;99.90
5429;DHT22;2737;52.386;9.980;2022-11-15T14:47:17;13.50;99.90
5429;DHT22;2737;52.386;9.980;2022-11-15T14:49:44;13.50;99.90
5429;DHT22;2737;52.386;9.980;2022-11-15T14:52:25;13.50;99.90
5429;DHT22;2737;52.386;9.980;2022-11-15T14:54:53;13.40;99.90
5429;DHT22;2737;52.386;9.980;2022-11-15T14:57:21;13.40;99.90
5429;DHT22;2737;52.386;9.980;2022-11-15T14:59:48;13.40;99.90
5429;DHT22;2737;52.386;9.980;2022-11-15T15:02:17;13.40;99.90
5429;DHT22;2737;52.386;9.980;2022-11-15T15:04:44;13.40;99.90
5429;DHT22;2737;52.386;9.980;2022-11-15T15:07:12;13.40;99.90
5429;DHT22;2737;52.386;9.980;2022-11-15T15:09:41;13.30;99.90
5429;DHT22;2737;52.386;9.980;2022-11-15T15:12:15;13.30;99.90
5429;DHT22;2737;52.386;9.980;2022-11-15T15:14:43;13.30;99.90
5429;DHT22;2737;52.386;9.980;2022-11-15T15:17:10;13.20;99.90
5429;DHT22;2737;52.386;9.980;2022-11-15T15:19:37;13.20;99.90
5429;DHT22;2737;52.386;9.980;2022-11-15T15:22:05;13.20;99.90
5429;DHT22;2737;52.386;9.980;2022-11-15T15:24:32;13.10;99.90
5429;DHT22;2737;52.386;9.980;2022-11-15T15:27:00;13.10;99.90
5429;DHT22;2737;52.386;9.980;2022-11-15T15:29:28;13.00;99.90
5429;DHT22;2737;52.386;9.980;2022-11-15T15:31:55;13.00;99.90
5429;DHT22;2737;52.386;9.980;2022-11-15T15:34:22;12.90;99.90
5429;DHT22;2737;52.386;9.980;2022-11-15T15:36:49;12.90;99.90
5429;DHT22;2737;52.386;9.980;2022-11-15T15:39:16;12.80;99.90
5429;DHT22;2737;52.386;9.980;2022-11-15T15:41:43;12.80;99.90
5429;DHT22;2737;52.386;9.980;2022-11-15T15:44:12;12.80;99.90
5429;DHT22;2737;52.386;9.980;2022-11-15T15:46:39;12.70;99.90
5429;DHT22;2737;52.386;9.980;2022-11-15T15:49:09;12.70;99.90
5429;DHT22;2737;52.386;9.980;2022-11-15T15:51:36;12.70;99.90
5429;DHT22;2737;52.386;9.980;2022-11-15T15:54:03;12.70;99.90
5429;DHT22;2737;52.386;9.980;2022-11-15T15:56:30;12.60;99.90
5429;DHT22;2737;52.386;9.980;2022-11-15T15:58:57;12.60;99.90
5429;DHT22;2737;52.386;9.980;2022-11-15T16:01:25;12.50;99.90
5429;DHT22;2737;52.386;9.980;2022-11-15T16:03:52;12.50;99.90
5429;DHT22;2737;52.386;9.980;2022-11-15T16:06:40;12.50;99.90
5429;DHT22;2737;52.386;9.980;2022-11-15T16:09:13;12.40;99.90
5429;DHT22;2737;52.386;9.980;2022-11-15T16:11:40;12.40;99.90
5429;DHT22;2737;52.386;9.980;2022-11-15T16:14:08;12.40;99.90
5429;DHT22;2737;52.386;9.980;2022-11-15T16:16:36;12.40;99.90
5429;DHT22;2737;52.386;9.980;2022-11-15T16:19:04;12.30;99.90
5429;DHT22;2737;52.386;9.980;2022-11-15T16:21:31;12.30;99.90
5429;DHT22;2737;52.386;9.980;2022-11-15T16:23:58;12.30;99.90
5429;DHT22;2737;52.386;9.980;2022-11-15T16:26:27;12.30;99.90
5429;DHT22;2737;52.386;9.980;2022-11-15T16:28:55;12.20;99.90
5429;DHT22;2737;52.386;9.980;2022-11-15T16:31:22;12.20;99.90
5429;DHT22;2737;52.386;9.980;2022-11-15T16:33:50;12.20;99.90
5429;DHT22;2737;52.386;9.980;2022-11-15T16:36:20;12.10;99.90
5429;DHT22;2737;52.386;9.980;2022-11-15T16:38:47;12.10;99.90
5429;DHT22;2737;52.386;9.980;2022-11-15T16:41:15;12.10;99.90
5429;DHT22;2737;52.386;9.980;2022-11-15T16:43:44;12.10;99.90
5429;DHT22;2737;52.386;9.980;2022-11-15T16:46:15;12.10;99.90
5429;DHT22;2737;52.386;9.980;2022-11-15T16:48:43;12.00;99.90
5429;DHT22;2737;52.386;9.980;2022-11-15T16:51:11;12.00;99.90
5429;DHT22;2737;52.386;9.980;2022-11-15T16:53:38;12.00;99.90
5429;DHT22;2737;52.386;9.980;2022-11-15T16:56:19;12.00;99.90
5429;DHT22;2737;52.386;9.980;2022-11-15T16:58:46;12.00;99.90
5429;DHT22;2737;52.386;9.980;2022-11-15T17:01:17;12.00;99.90